createdAt,value
2018-08-17T00:01:26.595Z,19.84
2018-08-17T00:03:55.206Z,19.84
2018-08-17T00:06:22.407Z,19.86
2018-08-17T00:08:49.665Z,19.96
2018-08-17T00:11:16.861Z,19.95
2018-08-17T00:13:44.430Z,20.00
2018-08-17T00:16:11.658Z,20.06
2018-08-17T00:21:29.106Z,20.12
2018-08-17T00:23:56.375Z,20.16
2018-08-17T00:26:23.594Z,20.18
2018-08-17T00:28:51.162Z,20.15
2018-08-17T00:31:18.346Z,20.10
2018-08-17T00:33:45.603Z,20.08
2018-08-17T00:36:12.800Z,20.14
2018-08-17T00:38:40.093Z,20.15
2018-08-17T00:41:07.320Z,20.20
2018-08-17T00:43:34.575Z,20.26
2018-08-17T00:46:01.800Z,20.38
2018-08-17T00:48:29.023Z,20.43
2018-08-17T00:50:56.254Z,20.48
2018-08-17T00:53:23.484Z,20.48
2018-08-17T00:55:50.703Z,20.48
2018-08-17T00:58:17.935Z,20.46
2018-08-17T01:00:45.206Z,20.40
2018-08-17T01:03:12.496Z,20.39
2018-08-17T01:05:39.703Z,20.60
2018-08-17T01:08:07.318Z,20.71
2018-08-17T01:10:34.560Z,20.63
2018-08-17T01:13:01.795Z,20.55
2018-08-17T01:15:29.047Z,20.46
2018-08-17T01:17:56.382Z,20.33
2018-08-17T01:20:23.618Z,20.25
2018-08-17T01:22:50.814Z,20.14
2018-08-17T01:25:18.066Z,20.07
2018-08-17T01:27:45.280Z,19.96
2018-08-17T01:30:12.542Z,19.90
2018-08-17T01:32:39.718Z,19.82
2018-08-17T01:35:07.205Z,19.75
2018-08-17T01:37:34.409Z,19.74
2018-08-17T01:40:01.668Z,19.77
2018-08-17T01:42:28.880Z,19.84
2018-08-17T01:44:56.126Z,19.93
2018-08-17T01:47:23.394Z,19.91
2018-08-17T01:49:50.611Z,19.83
2018-08-17T01:52:17.807Z,19.92
2018-08-17T01:54:45.065Z,20.01
2018-08-17T01:57:12.306Z,20.10
2018-08-17T01:59:39.522Z,20.20
2018-08-17T02:02:06.787Z,20.29
2018-08-17T02:04:34.014Z,20.34
2018-08-17T02:07:01.214Z,20.41
2018-08-17T02:09:28.450Z,20.46
2018-08-17T02:11:55.679Z,20.31
2018-08-17T02:14:22.902Z,20.18
2018-08-17T02:16:50.151Z,20.12
2018-08-17T02:19:18.629Z,20.02
2018-08-17T02:21:45.834Z,19.98
2018-08-17T02:24:13.126Z,19.96
2018-08-17T02:26:40.330Z,19.88
2018-08-17T02:29:07.560Z,19.74
2018-08-17T02:31:34.774Z,19.67
2018-08-17T02:34:02.011Z,19.63
2018-08-17T02:36:29.226Z,19.59
2018-08-17T02:38:56.498Z,19.49
2018-08-17T02:41:23.716Z,19.44
2018-08-17T02:43:50.952Z,19.39
2018-08-17T02:46:18.172Z,19.39
2018-08-17T02:48:45.383Z,19.38
2018-08-17T02:51:12.655Z,19.42
2018-08-17T02:53:40.855Z,19.45
2018-08-17T02:56:08.106Z,19.51
2018-08-17T02:58:35.346Z,19.47
2018-08-17T03:01:02.770Z,19.38
2018-08-17T03:03:30.030Z,19.31
2018-08-17T03:05:57.279Z,19.21
2018-08-17T03:08:24.475Z,19.17
2018-08-17T03:10:51.696Z,19.21
2018-08-17T03:13:18.922Z,19.27
2018-08-17T03:15:46.202Z,19.16
2018-08-17T03:18:14.448Z,19.14
2018-08-17T03:20:42.823Z,19.12
2018-08-17T03:23:10.901Z,19.08
2018-08-17T03:25:38.122Z,19.03
2018-08-17T03:28:05.730Z,18.96
2018-08-17T03:30:32.954Z,18.81
2018-08-17T03:33:00.178Z,18.75
2018-08-17T03:35:27.450Z,18.71
2018-08-17T03:37:54.659Z,18.71
2018-08-17T03:40:21.918Z,18.65
2018-08-17T03:42:49.327Z,18.72
2018-08-17T03:45:16.535Z,18.77
2018-08-17T03:47:43.743Z,18.73
2018-08-17T03:50:10.990Z,18.71
2018-08-17T03:52:38.194Z,18.70
2018-08-17T03:55:05.543Z,18.71
2018-08-17T03:57:32.743Z,18.73
2018-08-17T04:00:00.128Z,18.73
2018-08-17T04:02:27.371Z,18.80
2018-08-17T04:04:54.641Z,18.84
2018-08-17T04:07:21.944Z,18.83
2018-08-17T04:09:49.225Z,18.87
2018-08-17T04:12:16.422Z,18.94
2018-08-17T04:14:43.626Z,19.00
2018-08-17T04:17:10.867Z,19.09
2018-08-17T04:19:38.075Z,19.12
2018-08-17T04:22:05.318Z,19.15
2018-08-17T04:24:32.542Z,19.21
2018-08-17T04:26:59.770Z,19.22
2018-08-17T04:29:26.988Z,19.26
2018-08-17T04:31:54.222Z,19.31
2018-08-17T04:34:21.439Z,19.34
2018-08-17T04:36:48.771Z,19.33
2018-08-17T04:39:15.975Z,19.19
2018-08-17T04:41:43.211Z,19.11
2018-08-17T04:44:10.443Z,19.12
2018-08-17T04:46:37.675Z,18.98
2018-08-17T04:49:04.898Z,18.93
2018-08-17T04:51:32.150Z,18.90
2018-08-17T04:53:59.383Z,18.98
2018-08-17T04:56:26.611Z,19.03
2018-08-17T04:58:53.835Z,18.99
2018-08-17T05:01:21.055Z,18.99
2018-08-17T05:03:48.252Z,19.03
2018-08-17T05:06:15.509Z,19.03
2018-08-17T05:08:43.284Z,19.10
2018-08-17T05:11:10.515Z,19.19
2018-08-17T05:13:37.739Z,19.31
2018-08-17T05:16:05.170Z,19.51
2018-08-17T05:18:32.385Z,19.74
2018-08-17T05:20:59.614Z,19.92
2018-08-17T05:23:26.961Z,20.16
2018-08-17T05:25:54.208Z,20.37
2018-08-17T05:28:21.413Z,20.62
2018-08-17T05:30:48.622Z,20.77
2018-08-17T05:33:15.843Z,20.98
2018-08-17T05:35:43.070Z,21.18
2018-08-17T05:38:10.274Z,21.42
2018-08-17T05:40:37.485Z,21.61
2018-08-17T05:43:04.755Z,21.76
2018-08-17T05:45:32.041Z,21.94
2018-08-17T05:47:59.282Z,22.22
2018-08-17T05:50:26.539Z,22.45
2018-08-17T05:52:53.783Z,22.74
2018-08-17T05:55:21.019Z,23.00
2018-08-17T05:57:48.295Z,23.20
2018-08-17T06:00:15.532Z,23.34
2018-08-17T06:02:42.823Z,23.57
2018-08-17T06:05:10.663Z,23.74
2018-08-17T06:07:38.178Z,23.98
2018-08-17T06:10:07.139Z,24.32
2018-08-17T06:12:34.379Z,24.33
2018-08-17T06:15:01.591Z,24.66
2018-08-17T06:17:28.910Z,25.03
2018-08-17T06:19:56.183Z,25.30
2018-08-17T06:22:23.473Z,25.58
2018-08-17T06:24:51.575Z,25.64
2018-08-17T06:27:19.168Z,25.61
2018-08-17T06:29:46.403Z,25.82
2018-08-17T06:32:13.675Z,26.07
2018-08-17T06:34:40.900Z,26.32
2018-08-17T06:37:08.745Z,26.54
2018-08-17T06:39:35.952Z,26.59
2018-08-17T06:42:03.252Z,26.62
2018-08-17T06:44:30.477Z,26.77
2018-08-17T06:46:57.786Z,27.06
2018-08-17T06:49:25.057Z,27.12
2018-08-17T06:51:52.295Z,27.45
2018-08-17T06:54:19.581Z,27.60
2018-08-17T06:56:46.842Z,27.55
2018-08-17T06:59:14.068Z,27.90
2018-08-17T07:01:41.348Z,27.97
2018-08-17T07:04:08.588Z,28.33
2018-08-17T07:06:35.829Z,28.21
2018-08-17T07:09:04.519Z,28.36
2018-08-17T07:11:31.747Z,28.58
2018-08-17T07:13:59.006Z,28.31
2018-08-17T07:16:26.272Z,28.04
2018-08-17T07:18:53.518Z,28.43
2018-08-17T07:21:20.886Z,28.85
2018-08-17T07:23:49.906Z,28.51
2018-08-17T07:26:17.115Z,28.92
2018-08-17T07:28:44.379Z,29.14
2018-08-17T07:31:11.583Z,29.20
2018-08-17T07:33:38.907Z,29.03
2018-08-17T07:36:06.291Z,29.26
2018-08-17T07:38:33.605Z,29.52
2018-08-17T07:41:00.812Z,29.41
2018-08-17T07:43:28.079Z,29.69
2018-08-17T07:45:55.385Z,29.73
2018-08-17T07:48:22.741Z,30.25
2018-08-17T07:50:49.920Z,30.40
2018-08-17T07:53:17.188Z,30.54
2018-08-17T07:55:44.466Z,30.81
2018-08-17T07:58:11.723Z,31.16
2018-08-17T08:00:38.946Z,31.67
2018-08-17T08:03:06.194Z,31.65
2018-08-17T08:05:33.489Z,31.71
2018-08-17T08:08:00.727Z,32.05
2018-08-17T08:10:28.012Z,32.02
2018-08-17T08:12:55.282Z,32.11
2018-08-17T08:15:22.543Z,32.40
2018-08-17T08:17:49.783Z,32.63
2018-08-17T08:20:27.286Z,32.66
2018-08-17T08:23:05.911Z,32.89
2018-08-17T08:25:33.336Z,32.91
2018-08-17T08:28:00.736Z,32.99
2018-08-17T08:30:28.168Z,33.56
2018-08-17T08:32:55.450Z,33.38
2018-08-17T08:35:22.722Z,33.36
2018-08-17T08:37:50.113Z,33.40
2018-08-17T08:40:17.499Z,33.74
2018-08-17T08:42:44.823Z,33.69
2018-08-17T08:45:12.173Z,33.40
2018-08-17T08:47:39.455Z,33.62
2018-08-17T08:50:07.183Z,33.66
2018-08-17T08:52:45.293Z,33.46
2018-08-17T08:55:12.607Z,33.53
2018-08-17T08:57:39.922Z,33.70
2018-08-17T09:00:08.126Z,33.33
2018-08-17T09:02:35.455Z,32.98
2018-08-17T09:05:02.811Z,33.41
2018-08-17T09:07:30.071Z,33.62
2018-08-17T09:09:57.381Z,33.80
2018-08-17T09:12:24.646Z,33.82
2018-08-17T09:14:51.970Z,33.68
2018-08-17T09:17:19.415Z,34.22
2018-08-17T09:19:46.718Z,33.90
2018-08-17T09:22:14.551Z,34.11
2018-08-17T09:24:41.810Z,33.49
2018-08-17T09:27:09.064Z,33.70
2018-08-17T09:29:36.452Z,33.58
2018-08-17T09:32:03.749Z,33.93
2018-08-17T09:34:31.039Z,34.31
2018-08-17T09:36:58.319Z,33.92
2018-08-17T09:39:25.863Z,33.58
2018-08-17T09:41:53.167Z,33.56
2018-08-17T09:44:20.536Z,33.45
2018-08-17T09:46:47.796Z,33.76
2018-08-17T09:49:16.752Z,33.22
2018-08-17T09:51:44.020Z,33.17
2018-08-17T09:54:11.312Z,33.26
2018-08-17T09:56:38.587Z,33.16
2018-08-17T09:59:06.122Z,33.36
2018-08-17T10:01:38.926Z,32.87
2018-08-17T10:04:12.023Z,33.10
2018-08-17T10:06:44.878Z,32.81
2018-08-17T10:09:18.973Z,32.97
2018-08-17T10:11:47.823Z,32.77
2018-08-17T10:14:15.091Z,32.86
2018-08-17T10:16:42.660Z,32.52
2018-08-17T10:19:10.012Z,32.75
2018-08-17T10:21:44.325Z,32.63
2018-08-17T10:24:11.268Z,32.56
2018-08-17T10:26:39.051Z,32.57
2018-08-17T10:29:06.323Z,32.32
2018-08-17T10:31:33.536Z,31.69
2018-08-17T10:34:00.957Z,31.42
2018-08-17T10:36:28.242Z,31.36
2018-08-17T10:38:55.498Z,31.21
2018-08-17T10:41:25.995Z,30.86
2018-08-17T10:43:53.215Z,30.87
2018-08-17T10:46:20.601Z,30.72
2018-08-17T10:48:47.889Z,30.46
2018-08-17T10:51:15.092Z,30.47
2018-08-17T10:53:43.646Z,30.35
2018-08-17T10:56:10.891Z,30.70
2018-08-17T10:58:38.119Z,31.22
2018-08-17T11:01:05.522Z,31.31
2018-08-17T11:03:32.778Z,31.29
2018-08-17T11:06:00.038Z,31.70
2018-08-17T11:08:28.495Z,31.84
2018-08-17T11:10:55.774Z,31.61
2018-08-17T11:13:23.038Z,31.68
2018-08-17T11:15:50.272Z,31.74
2018-08-17T11:18:18.094Z,32.40
2018-08-17T11:20:45.348Z,32.83
2018-08-17T11:23:12.573Z,33.43
2018-08-17T11:25:39.818Z,33.71
2018-08-17T11:28:07.059Z,34.14
2018-08-17T11:30:34.328Z,34.22
2018-08-17T11:33:01.555Z,34.95
2018-08-17T11:35:28.844Z,34.41
2018-08-17T11:37:56.098Z,33.93
2018-08-17T11:40:23.331Z,33.38
2018-08-17T11:42:50.903Z,33.60
2018-08-17T11:45:19.499Z,32.81
2018-08-17T11:47:47.312Z,32.82
2018-08-17T11:50:17.058Z,32.98
2018-08-17T11:52:51.048Z,33.23
2018-08-17T11:55:18.727Z,32.82
2018-08-17T11:57:45.982Z,32.55
2018-08-17T12:00:13.279Z,31.77
2018-08-17T12:02:40.502Z,31.73
2018-08-17T12:05:08.330Z,31.88
2018-08-17T12:07:35.532Z,31.59
2018-08-17T12:10:03.755Z,32.20
2018-08-17T12:12:33.049Z,32.68
2018-08-17T12:15:00.339Z,32.69
2018-08-17T12:17:27.595Z,33.18
2018-08-17T12:19:54.840Z,33.39
2018-08-17T12:22:22.100Z,33.64
2018-08-17T12:24:50.804Z,34.02
2018-08-17T12:27:18.064Z,34.04
2018-08-17T12:29:45.391Z,34.27
2018-08-17T12:32:12.783Z,34.12
2018-08-17T12:34:39.990Z,33.76
2018-08-17T12:37:07.233Z,33.96
2018-08-17T12:39:34.498Z,34.41
2018-08-17T12:42:02.025Z,34.42
2018-08-17T12:44:29.326Z,34.71
2018-08-17T12:46:56.804Z,34.51
2018-08-17T12:49:24.409Z,35.02
2018-08-17T12:51:51.646Z,35.06
2018-08-17T12:54:24.443Z,34.66
2018-08-17T12:56:52.017Z,35.04
2018-08-17T12:59:19.250Z,34.92
2018-08-17T13:01:46.651Z,34.94
2018-08-17T13:04:13.887Z,34.37
2018-08-17T13:06:41.151Z,34.43
2018-08-17T13:09:08.400Z,34.23
2018-08-17T13:11:40.381Z,34.23
2018-08-17T13:14:11.158Z,34.18
2018-08-17T13:16:39.695Z,34.34
2018-08-17T13:19:07.508Z,34.13
2018-08-17T13:21:34.885Z,34.54
2018-08-17T13:24:02.117Z,34.85
2018-08-17T13:26:29.363Z,34.25
2018-08-17T13:28:56.579Z,33.74
2018-08-17T13:31:23.838Z,33.89
2018-08-17T13:33:51.051Z,33.65
2018-08-17T13:36:18.343Z,33.64
2018-08-17T13:38:45.563Z,33.70
2018-08-17T13:41:12.826Z,33.52
2018-08-17T13:43:40.060Z,33.72
2018-08-17T13:46:07.440Z,33.88
2018-08-17T13:48:35.682Z,33.70
2018-08-17T13:51:03.002Z,33.89
2018-08-17T13:53:30.238Z,33.90
2018-08-17T13:55:57.502Z,33.78
2018-08-17T13:58:24.820Z,34.03
2018-08-17T14:00:52.114Z,33.67
2018-08-17T14:03:19.381Z,33.63
2018-08-17T14:05:46.599Z,33.78
2018-08-17T14:08:13.865Z,33.66
2018-08-17T14:10:41.116Z,33.72
2018-08-17T14:13:08.580Z,33.29
2018-08-17T14:15:35.905Z,33.17
2018-08-17T14:18:04.711Z,33.59
2018-08-17T14:20:31.954Z,33.59
2018-08-17T14:22:59.244Z,33.61
2018-08-17T14:25:26.498Z,33.43
2018-08-17T14:27:53.740Z,33.39
2018-08-17T14:30:20.978Z,33.13
2018-08-17T14:32:48.216Z,32.71
2018-08-17T14:35:15.596Z,32.68
2018-08-17T14:37:43.060Z,32.51
2018-08-17T14:40:10.654Z,32.26
2018-08-17T14:42:38.094Z,32.39
2018-08-17T14:45:06.320Z,31.83
2018-08-17T14:47:33.704Z,31.61
2018-08-17T14:50:00.964Z,31.59
2018-08-17T14:52:28.215Z,31.86
2018-08-17T14:54:55.429Z,31.87
2018-08-17T14:57:22.723Z,31.66
2018-08-17T14:59:49.948Z,31.73
2018-08-17T15:02:17.279Z,31.43
2018-08-17T15:04:44.497Z,31.29
2018-08-17T15:07:11.793Z,31.08
2018-08-17T15:09:39.026Z,30.97
2018-08-17T15:12:06.301Z,30.96
2018-08-17T15:14:33.522Z,31.08
2018-08-17T15:17:00.744Z,31.02
2018-08-17T15:19:27.987Z,30.89
2018-08-17T15:21:55.219Z,30.88
2018-08-17T15:24:22.558Z,30.93
2018-08-17T15:26:49.889Z,30.76
2018-08-17T15:29:17.176Z,30.75
2018-08-17T15:31:44.504Z,30.72
2018-08-17T15:34:11.782Z,30.75
2018-08-17T15:36:39.071Z,30.65
2018-08-17T15:39:06.901Z,30.68
2018-08-17T15:41:41.230Z,30.79
2018-08-17T15:44:13.090Z,30.83
2018-08-17T15:46:40.410Z,30.77
2018-08-17T15:49:08.513Z,30.62
2018-08-17T15:51:35.711Z,30.35
2018-08-17T15:54:03.276Z,30.23
2018-08-17T15:56:30.561Z,30.14
2018-08-17T15:58:57.860Z,30.01
2018-08-17T16:01:25.169Z,29.99
2018-08-17T16:03:52.401Z,29.98
2018-08-17T16:06:19.641Z,29.99
2018-08-17T16:08:46.886Z,29.88
2018-08-17T16:11:14.104Z,29.86
2018-08-17T16:13:41.404Z,29.86
2018-08-17T16:16:08.704Z,29.83
2018-08-17T16:18:35.927Z,29.86
2018-08-17T16:21:03.187Z,29.90
2018-08-17T16:23:30.498Z,29.84
2018-08-17T16:25:57.801Z,29.84
2018-08-17T16:28:25.026Z,29.47
2018-08-17T16:30:52.235Z,29.06
2018-08-17T16:33:20.717Z,28.67
2018-08-17T16:35:48.022Z,28.33
2018-08-17T16:38:15.280Z,27.89
2018-08-17T16:40:47.151Z,27.58
2018-08-17T16:43:15.559Z,27.40
2018-08-17T16:45:42.810Z,27.35
2018-08-17T16:48:10.093Z,27.19
2018-08-17T16:50:37.408Z,26.92
2018-08-17T16:53:04.771Z,26.57
2018-08-17T16:55:32.014Z,26.27
2018-08-17T16:57:59.281Z,26.09
2018-08-17T17:00:26.773Z,26.16
2018-08-17T17:02:53.918Z,26.22
2018-08-17T17:05:21.171Z,26.24
2018-08-17T17:07:48.370Z,26.32
2018-08-17T17:10:15.653Z,26.36
2018-08-17T17:12:42.900Z,26.38
2018-08-17T17:15:15.911Z,26.27
2018-08-17T17:17:50.506Z,26.33
2018-08-17T17:20:17.751Z,26.19
2018-08-17T17:22:45.068Z,26.12
2018-08-17T17:25:17.418Z,26.13
2018-08-17T17:27:45.058Z,26.10
2018-08-17T17:30:12.404Z,26.17
2018-08-17T17:32:39.714Z,26.22
2018-08-17T17:35:07.300Z,26.19
2018-08-17T17:37:34.719Z,26.25
2018-08-17T17:40:02.096Z,26.33
2018-08-17T17:42:29.392Z,26.32
2018-08-17T17:44:56.859Z,26.41
2018-08-17T17:47:24.909Z,25.85
2018-08-17T17:49:52.190Z,25.22
2018-08-17T17:52:19.481Z,25.30
2018-08-17T17:54:46.768Z,24.43
2018-08-17T17:57:14.050Z,23.19
2018-08-17T17:59:47.786Z,22.27
2018-08-17T18:02:15.919Z,22.03
2018-08-17T18:04:43.854Z,21.84
2018-08-17T18:07:13.777Z,21.63
2018-08-17T18:09:41.083Z,21.40
2018-08-17T18:12:08.514Z,21.35
2018-08-17T18:14:35.799Z,21.31
2018-08-17T18:17:03.107Z,21.30
2018-08-17T18:19:30.492Z,21.12
2018-08-17T18:21:58.455Z,20.97
2018-08-17T18:24:26.524Z,20.97
2018-08-17T18:26:53.751Z,20.83
2018-08-17T18:29:21.029Z,20.65
2018-08-17T18:31:48.305Z,20.59
2018-08-17T18:34:15.923Z,20.63
2018-08-17T18:36:43.309Z,20.60
2018-08-17T18:39:13.091Z,20.61
2018-08-17T18:41:40.549Z,20.54
2018-08-17T18:44:07.910Z,20.59
2018-08-17T18:46:35.757Z,20.62
2018-08-17T18:49:03.188Z,20.60
2018-08-17T18:51:30.496Z,20.56
2018-08-17T18:53:57.876Z,20.59
2018-08-17T18:56:25.200Z,20.58
2018-08-17T18:58:52.513Z,20.63
2018-08-17T19:01:19.956Z,20.66
2018-08-17T19:03:47.304Z,20.77
2018-08-17T19:06:14.672Z,20.64
2018-08-17T19:08:42.754Z,20.66
2018-08-17T19:11:10.217Z,20.64
2018-08-17T19:13:37.516Z,20.67
2018-08-17T19:16:05.003Z,20.77
2018-08-17T19:18:32.825Z,20.88
2018-08-17T19:21:03.412Z,20.89
2018-08-17T19:23:30.752Z,20.92
2018-08-17T19:25:58.044Z,20.90
2018-08-17T19:28:25.292Z,20.97
2018-08-17T19:30:52.588Z,20.97
2018-08-17T19:33:20.190Z,21.00
2018-08-17T19:35:47.949Z,21.06
2018-08-17T19:38:15.297Z,21.06
2018-08-17T19:40:42.628Z,21.07
2018-08-17T19:43:10.601Z,21.12
2018-08-17T19:45:38.033Z,21.14
2018-08-17T19:48:05.578Z,21.10
2018-08-17T19:50:32.995Z,21.01
2018-08-17T19:53:01.227Z,20.95
2018-08-17T19:55:28.510Z,20.97
2018-08-17T19:57:56.530Z,20.99
2018-08-17T20:00:23.976Z,20.95
2018-08-17T20:02:52.126Z,20.82
2018-08-17T20:05:19.513Z,20.85
2018-08-17T20:07:46.891Z,20.90
2018-08-17T20:10:14.885Z,20.99
2018-08-17T20:12:42.875Z,21.02
2018-08-17T20:15:10.210Z,21.05
2018-08-17T20:17:38.209Z,21.00
2018-08-17T20:20:07.982Z,20.91
2018-08-17T20:22:35.438Z,20.75
2018-08-17T20:25:08.625Z,20.74
2018-08-17T20:27:35.870Z,20.74
2018-08-17T20:30:08.730Z,20.73
2018-08-17T20:32:35.944Z,20.66
2018-08-17T20:35:03.232Z,20.64
2018-08-17T20:37:30.532Z,20.63
2018-08-17T20:39:57.854Z,20.57
2018-08-17T20:42:25.151Z,20.56
2018-08-17T20:44:52.355Z,20.49
2018-08-17T20:47:19.614Z,20.45
2018-08-17T20:49:46.844Z,20.48
2018-08-17T20:52:14.061Z,20.46
2018-08-17T20:54:41.259Z,20.47
2018-08-17T20:57:08.511Z,20.47
2018-08-17T20:59:35.734Z,20.45
2018-08-17T21:02:03.128Z,20.39
2018-08-17T21:04:30.327Z,20.34
2018-08-17T21:06:57.603Z,20.25
2018-08-17T21:09:24.804Z,20.27
2018-08-17T21:11:52.032Z,20.30
2018-08-17T21:14:19.269Z,20.32
2018-08-17T21:16:46.542Z,20.27
2018-08-17T21:19:13.789Z,20.25
2018-08-17T21:21:41.097Z,20.20
2018-08-17T21:24:08.295Z,20.21
2018-08-17T21:26:35.546Z,20.27
2018-08-17T21:29:03.463Z,20.22
2018-08-17T21:31:30.824Z,20.19
2018-08-17T21:33:58.076Z,20.18
2018-08-17T21:36:25.322Z,20.11
2018-08-17T21:39:10.160Z,20.03
2018-08-17T21:41:38.593Z,19.98
2018-08-17T21:44:07.206Z,20.00
2018-08-17T21:46:34.478Z,20.01
2018-08-17T21:49:01.703Z,19.98
2018-08-17T21:51:33.083Z,19.98
2018-08-17T21:54:00.300Z,19.93
2018-08-17T21:56:27.514Z,19.99
2018-08-17T21:58:54.742Z,20.05
2018-08-17T22:01:21.962Z,20.11
2018-08-17T22:03:49.194Z,20.16
2018-08-17T22:06:16.407Z,20.14
2018-08-17T22:08:43.619Z,20.15
2018-08-17T22:11:11.497Z,20.20
2018-08-17T22:13:38.707Z,20.20
2018-08-17T22:16:06.007Z,20.29
2018-08-17T22:18:33.277Z,20.34
2018-08-17T22:21:00.498Z,20.40
2018-08-17T22:23:30.371Z,20.39
2018-08-17T22:25:57.632Z,20.42
2018-08-17T22:28:24.902Z,20.45
2018-08-17T22:30:52.144Z,20.43
2018-08-17T22:33:19.432Z,20.47
2018-08-17T22:35:46.662Z,20.49
2018-08-17T22:38:13.924Z,20.52
2018-08-17T22:40:41.125Z,20.53
2018-08-17T22:43:08.358Z,20.51
2018-08-17T22:45:35.562Z,20.51
2018-08-17T22:48:02.913Z,20.53
2018-08-17T22:50:30.140Z,20.49
2018-08-17T22:52:57.419Z,20.41
2018-08-17T22:55:24.622Z,20.41
2018-08-17T22:57:51.864Z,20.32
2018-08-17T23:00:24.030Z,20.26
2018-08-17T23:02:52.550Z,20.20
2018-08-17T23:05:24.307Z,20.17
2018-08-17T23:07:51.621Z,20.15
2018-08-17T23:10:20.893Z,20.01
2018-08-17T23:12:49.430Z,20.09
2018-08-17T23:15:16.732Z,20.05
2018-08-17T23:18:01.038Z,20.04
2018-08-17T23:20:33.810Z,20.02
2018-08-17T23:23:01.790Z,19.96
2018-08-17T23:25:29.229Z,19.97
2018-08-17T23:27:56.460Z,19.99
2018-08-17T23:30:23.737Z,19.95
2018-08-17T23:32:50.964Z,19.92
2018-08-17T23:35:18.196Z,19.93
2018-08-17T23:37:45.455Z,19.98
2018-08-17T23:40:12.705Z,19.98
2018-08-17T23:42:39.932Z,19.96
2018-08-17T23:45:09.947Z,19.94
2018-08-17T23:47:37.190Z,19.91
2018-08-17T23:50:05.302Z,19.82
2018-08-17T23:52:32.542Z,19.81
2018-08-17T23:54:59.783Z,19.75
2018-08-17T23:57:27.026Z,19.68
2018-08-17T23:59:55.403Z,19.63
